Time;durP1;ratioP1;P1;durP2;ratioP2;P2;SDS_P1;SDS_P2;PMS_P1;PMS_P2;Temp;Humidity;BMP_temperature;BMP_pressure;BME280_temperature;BME280_humidity;BME280_pressure;Samples;Min_cycle;Max_cycle;Signal;HPM_P1;HPM_P2
2023/04/04 00:01:59;;;;;;;16.57;2.47;;;1.00;99.90;;;;;;5091865;28;20112;-48
2023/04/04 00:04:28;;;;;;;16.17;1.90;;;0.90;99.90;;;;;;5092007;28;20032;-48
2023/04/04 00:06:54;;;;;;;19.00;3.50;;;0.90;99.90;;;;;;5090499;28;20078;-46
2023/04/04 00:09:20;;;;;;;17.47;2.33;;;0.90;99.90;;;;;;5091406;28;20101;-51
2023/04/04 00:11:46;;;;;;;19.73;2.67;;;1.00;99.90;;;;;;5091531;28;20032;-46
2023/04/04 00:14:12;;;;;;;17.80;2.83;;;1.00;99.90;;;;;;5091338;28;20024;-47
2023/04/04 00:16:38;;;;;;;12.07;2.20;;;1.00;99.90;;;;;;5091335;28;20742;-49
2023/04/04 00:19:03;;;;;;;14.00;2.37;;;1.00;99.90;;;;;;5091155;28;20107;-48
2023/04/04 00:21:29;;;;;;;14.37;3.50;;;1.10;99.90;;;;;;5091244;28;20055;-49
2023/04/04 00:23:58;;;;;;;16.77;2.70;;;1.10;99.90;;;;;;5091030;28;20473;-49
2023/04/04 00:26:27;;;;;;;14.50;2.53;;;1.10;99.90;;;;;;5090544;28;20034;-47
2023/04/04 00:28:53;;;;;;;19.10;2.85;;;1.00;99.90;;;;;;5089787;28;20412;-48
2023/04/04 00:31:19;;;;;;;11.90;2.70;;;1.10;99.90;;;;;;5091037;28;20027;-48
2023/04/04 00:33:46;;;;;;;13.13;2.87;;;1.10;99.90;;;;;;5090868;28;20102;-47
2023/04/04 00:36:12;;;;;;;8.07;2.40;;;1.10;99.90;;;;;;5091022;28;20602;-50
2023/04/04 00:38:37;;;;;;;17.50;2.63;;;1.00;99.90;;;;;;5090770;28;20515;-47
2023/04/04 00:41:05;;;;;;;9.00;2.33;;;0.90;99.90;;;;;;5089690;28;20028;-49
2023/04/04 00:43:32;;;;;;;8.23;2.37;;;0.80;99.90;;;;;;5090614;28;20150;-51
2023/04/04 00:45:58;;;;;;;10.70;2.50;;;0.80;99.90;;;;;;5089629;28;20032;-48
2023/04/04 00:48:23;;;;;;;6.17;2.10;;;0.80;99.90;;;;;;5089119;28;20024;-48
2023/04/04 00:50:49;;;;;;;7.20;2.30;;;0.90;99.90;;;;;;5090901;28;20028;-48
2023/04/04 00:53:16;;;;;;;8.60;2.17;;;0.90;99.90;;;;;;5090938;28;20024;-48
2023/04/04 00:55:42;;;;;;;7.17;2.00;;;0.80;99.90;;;;;;5091141;28;20020;-48
2023/04/04 00:58:09;;;;;;;9.47;2.17;;;0.80;99.90;;;;;;5090761;28;20399;-48
2023/04/04 01:00:36;;;;;;;9.60;2.63;;;0.80;99.90;;;;;;5090669;28;20090;-47
2023/04/04 01:03:04;;;;;;;5.33;1.93;;;0.90;99.90;;;;;;5090718;28;20392;-47
2023/04/04 01:05:30;;;;;;;5.83;2.57;;;0.80;99.90;;;;;;5090512;28;20111;-48
2023/04/04 01:07:56;;;;;;;7.00;2.20;;;0.90;99.90;;;;;;5090564;28;20082;-47
2023/04/04 01:10:22;;;;;;;8.03;2.70;;;0.80;99.90;;;;;;5087086;22;20045;-52
2023/04/04 01:12:48;;;;;;;8.00;2.60;;;0.80;99.90;;;;;;5069136;28;20021;-48
2023/04/04 01:15:15;;;;;;;7.57;2.73;;;0.80;99.90;;;;;;5068891;28;20114;-50
2023/04/04 01:17:43;;;;;;;9.33;2.70;;;0.80;99.90;;;;;;5068657;28;20509;-50
2023/04/04 01:20:19;;;;;;;9.93;2.63;;;0.80;99.90;;;;;;5068902;28;20028;-52
2023/04/04 01:22:53;;;;;;;7.60;2.67;;;0.80;99.90;;;;;;5069013;28;20028;-53
2023/04/04 01:25:25;;;;;;;6.13;2.13;;;0.70;99.90;;;;;;5068670;28;20045;-52
2023/04/04 01:27:55;;;;;;;9.30;3.10;;;0.70;99.90;;;;;;5068784;28;20029;-54
2023/04/04 01:30:24;;;;;;;7.90;2.70;;;0.70;99.90;;;;;;5069146;28;20101;-51
2023/04/04 01:32:53;;;;;;;6.22;2.67;;;0.70;99.90;;;;;;5070215;28;20028;-52
2023/04/04 01:35:28;;;;;;;5.97;2.43;;;0.70;99.90;;;;;;5068670;28;20051;-48
2023/04/04 01:38:17;;;;;;;7.90;2.60;;;0.70;99.90;;;;;;5070818;28;20043;-53
2023/04/04 01:40:48;;;;;;;6.23;2.30;;;0.70;99.90;;;;;;5074094;28;20036;-48
2023/04/04 01:43:14;;;;;;;7.37;2.40;;;0.70;99.90;;;;;;5072898;28;20033;-52
2023/04/04 01:45:42;;;;;;;7.03;2.50;;;0.60;99.90;;;;;;5072606;28;20396;-52
2023/04/04 01:48:11;;;;;;;7.47;2.90;;;0.60;99.90;;;;;;5072381;28;20024;-50
2023/04/04 01:50:37;;;;;;;7.03;2.80;;;0.60;99.90;;;;;;5072522;28;20052;-53
2023/04/04 01:53:04;;;;;;;7.37;2.77;;;0.60;99.90;;;;;;5072588;28;20032;-54
2023/04/04 01:55:30;;;;;;;7.77;2.90;;;0.60;99.90;;;;;;5073690;28;20099;-51
2023/04/04 01:57:56;;;;;;;8.77;2.90;;;0.60;99.90;;;;;;5072323;28;20028;-48
2023/04/04 02:00:21;;;;;;;7.70;2.60;;;0.60;99.90;;;;;;5072338;28;20029;-52
2023/04/04 02:02:47;;;;;;;7.47;3.00;;;0.60;99.90;;;;;;5073828;28;20081;-50
2023/04/04 02:05:13;;;;;;;7.50;2.90;;;0.60;99.90;;;;;;5073559;28;20040;-50
2023/04/04 02:07:39;;;;;;;7.80;3.10;;;0.60;99.90;;;;;;5072067;28;20036;-50
2023/04/04 02:10:15;;;;;;;7.47;2.80;;;0.60;99.90;;;;;;5072389;28;20129;-50
2023/04/04 02:12:41;;;;;;;10.03;2.67;;;0.60;99.90;;;;;;5073584;28;20082;-55
2023/04/04 02:15:07;;;;;;;7.17;2.50;;;0.60;99.90;;;;;;5071997;28;20032;-55
2023/04/04 02:17:33;;;;;;;8.93;3.20;;;0.60;99.90;;;;;;5071823;28;20200;-52
2023/04/04 02:19:59;;;;;;;8.00;3.40;;;0.50;99.90;;;;;;5071870;28;20060;-51
2023/04/04 02:22:25;;;;;;;6.47;3.07;;;0.60;99.90;;;;;;5072006;28;20070;-50
2023/04/04 02:24:52;;;;;;;6.87;2.83;;;0.50;99.90;;;;;;5073203;28;20380;-53
2023/04/04 02:27:18;;;;;;;9.23;3.00;;;0.50;99.90;;;;;;5071749;28;20036;-52
2023/04/04 02:29:44;;;;;;;7.30;3.60;;;0.40;99.90;;;;;;5073061;28;20342;-48
2023/04/04 02:32:10;;;;;;;9.50;3.10;;;0.40;99.90;;;;;;5073248;28;20034;-52
2023/04/04 02:34:36;;;;;;;10.30;2.80;;;0.30;99.90;;;;;;5071742;28;20055;-54
2023/04/04 02:37:02;;;;;;;10.60;2.90;;;0.30;99.90;;;;;;5071551;28;20028;-54
2023/04/04 02:39:29;;;;;;;9.67;3.33;;;0.20;99.90;;;;;;5071588;28;20515;-52
2023/04/04 02:41:55;;;;;;;6.53;3.17;;;0.20;99.90;;;;;;5071728;28;20051;-51
2023/04/04 02:44:22;;;;;;;7.73;3.03;;;0.20;99.90;;;;;;5071564;28;20048;-53
2023/04/04 02:46:49;;;;;;;7.47;3.03;;;0.20;99.90;;;;;;5071356;28;20047;-54
2023/04/04 02:49:15;;;;;;;9.30;3.20;;;0.30;99.90;;;;;;5071044;28;20032;-50
2023/04/04 02:51:46;;;;;;;10.27;3.00;;;0.30;99.90;;;;;;5071527;28;20029;-51
2023/04/04 02:54:12;;;;;;;6.70;3.10;;;0.30;99.90;;;;;;5072797;28;20033;-53
2023/04/04 02:56:42;;;;;;;9.57;3.23;;;0.30;99.90;;;;;;5071126;28;20029;-49
2023/04/04 02:59:07;;;;;;;10.23;3.40;;;0.30;99.90;;;;;;5071378;28;20024;-53
2023/04/04 03:01:33;;;;;;;10.90;3.40;;;0.40;99.90;;;;;;5071167;28;20132;-53
2023/04/04 03:04:03;;;;;;;7.73;3.33;;;0.30;99.90;;;;;;5072361;28;20500;-51
2023/04/04 03:06:31;;;;;;;9.17;3.13;;;0.30;99.90;;;;;;5070963;28;20501;-52
2023/04/04 03:08:57;;;;;;;11.40;3.20;;;0.20;99.90;;;;;;5070975;28;20081;-52
2023/04/04 03:11:23;;;;;;;8.13;3.30;;;0.20;99.90;;;;;;5071174;28;20040;-53
2023/04/04 03:13:52;;;;;;;10.23;3.30;;;0.20;99.90;;;;;;5070863;28;20401;-55
2023/04/04 03:16:21;;;;;;;8.75;3.33;;;0.10;99.90;;;;;;5070575;28;20028;-52
2023/04/04 03:18:50;;;;;;;12.18;3.97;;;0.10;99.90;;;;;;5070947;28;20032;-49
2023/04/04 03:21:18;;;;;;;10.35;3.67;;;0.10;99.90;;;;;;5071052;28;20059;-53
2023/04/04 03:23:44;;;;;;;9.10;3.43;;;0.10;99.90;;;;;;5070780;28;20052;-52
2023/04/04 03:26:10;;;;;;;7.17;3.17;;;0.00;99.90;;;;;;5072627;28;20396;-51
2023/04/04 03:28:36;;;;;;;12.33;3.57;;;0.00;99.90;;;;;;5070606;28;20024;-51
2023/04/04 03:31:04;;;;;;;7.93;3.57;;;0.00;99.90;;;;;;5071901;28;20431;-53
2023/04/04 03:33:30;;;;;;;10.27;3.67;;;0.00;99.90;;;;;;5070491;28;20040;-48
2023/04/04 03:35:55;;;;;;;9.67;3.83;;;0.00;99.90;;;;;;5072024;28;20033;-54
2023/04/04 03:38:21;;;;;;;9.77;3.87;;;0.00;99.90;;;;;;5071838;28;20409;-50
2023/04/04 03:40:47;;;;;;;10.93;4.20;;;0.00;99.90;;;;;;5070410;28;20123;-52
2023/04/04 03:43:12;;;;;;;8.20;3.53;;;0.00;99.90;;;;;;5071963;28;20024;-52
2023/04/04 03:45:40;;;;;;;12.50;4.03;;;0.00;99.90;;;;;;5070204;28;20120;-54
2023/04/04 03:48:09;;;;;;;8.73;3.57;;;0.00;99.90;;;;;;5070215;28;20512;-53
2023/04/04 03:50:36;;;;;;;10.20;3.97;;;0.00;99.90;;;;;;5070271;28;20078;-52
2023/04/04 03:53:02;;;;;;;10.37;3.70;;;0.00;99.90;;;;;;5071768;28;20032;-52
2023/04/04 03:55:28;;;;;;;10.97;3.90;;;0.00;99.90;;;;;;5071857;28;20025;-49
2023/04/04 03:57:57;;;;;;;;;;;-0.10;99.90;;;;;;5070668;28;20039;-53
2023/04/04 04:00:25;;;;;;;7.53;3.50;;;-0.10;99.90;;;;;;5070705;28;19908;-52
2023/04/04 04:02:50;;;;;;;9.77;3.80;;;-0.20;99.90;;;;;;5070297;28;20439;-55
2023/04/04 04:05:17;;;;;;;12.63;4.13;;;-0.30;99.90;;;;;;5069952;28;20021;-51
2023/04/04 04:07:44;;;;;;;9.53;4.07;;;-0.30;99.90;;;;;;5069818;28;20028;-52
2023/04/04 04:10:12;;;;;;;9.60;3.87;;;-0.20;99.90;;;;;;5071100;28;20098;-53
2023/04/04 04:12:38;;;;;;;11.73;4.00;;;-0.30;99.90;;;;;;5069827;28;20029;-55
2023/04/04 04:15:04;;;;;;;10.80;3.93;;;-0.20;99.90;;;;;;5069798;28;20074;-53
2023/04/04 04:17:32;;;;;;;10.23;4.03;;;-0.20;99.90;;;;;;5070895;28;20036;-51
2023/04/04 04:19:58;;;;;;;9.27;4.23;;;-0.20;99.90;;;;;;5069725;28;20025;-53
2023/04/04 04:22:25;;;;;;;12.80;4.10;;;-0.20;99.90;;;;;;5069739;28;20032;-52
2023/04/04 04:24:51;;;;;;;9.90;4.30;;;-0.20;99.90;;;;;;5071247;28;20150;-53
2023/04/04 04:27:17;;;;;;;8.70;3.77;;;-0.20;99.90;;;;;;5069422;28;20028;-54
2023/04/04 04:29:43;;;;;;;10.33;4.20;;;-0.20;99.90;;;;;;5069390;28;20028;-52
2023/04/04 04:32:09;;;;;;;14.30;4.47;;;-0.30;99.90;;;;;;5069629;28;20147;-51
2023/04/04 04:34:41;;;;;;;9.90;4.20;;;-0.30;99.90;;;;;;5069319;28;20450;-54
2023/04/04 04:37:07;;;;;;;17.53;4.50;;;-0.40;99.90;;;;;;5069267;28;20029;-53
2023/04/04 04:39:42;;;;;;;13.37;4.30;;;-0.30;99.90;;;;;;5069287;28;20021;-50
2023/04/04 04:42:21;;;;;;;11.02;3.88;;;-0.30;99.90;;;;;;5069435;28;20447;-51
2023/04/04 04:44:54;;;;;;;11.57;3.83;;;-0.30;99.90;;;;;;5069116;28;20444;-53
2023/04/04 04:47:21;;;;;;;9.93;4.20;;;-0.30;99.90;;;;;;5069096;28;20024;-51
2023/04/04 04:49:48;;;;;;;11.20;4.60;;;-0.30;99.90;;;;;;5069174;28;20058;-52
2023/04/04 04:52:18;;;;;;;12.43;4.37;;;-0.30;99.90;;;;;;5069371;28;20281;-49
2023/04/04 04:54:44;;;;;;;12.90;4.40;;;-0.30;99.90;;;;;;5069035;28;20098;-49
2023/04/04 04:57:10;;;;;;;10.73;4.17;;;-0.30;99.90;;;;;;5070314;28;20028;-51
2023/04/04 04:59:40;;;;;;;;;;;-0.30;99.90;;;;;;5069668;28;20058;-50
2023/04/04 05:02:06;;;;;;;11.33;4.07;;;-0.30;99.90;;;;;;5069162;28;19916;-52
2023/04/04 05:04:40;;;;;;;12.20;4.37;;;-0.30;99.90;;;;;;5068856;28;20520;-51
2023/04/04 05:07:07;;;;;;;14.90;4.17;;;-0.30;99.90;;;;;;5070421;28;20310;-52
2023/04/04 05:09:33;;;;;;;9.07;3.93;;;-0.30;99.90;;;;;;5068834;28;20115;-50
2023/04/04 05:11:59;;;;;;;12.47;4.00;;;-0.30;99.90;;;;;;5068980;28;20121;-50
2023/04/04 05:14:35;;;;;;;12.80;4.43;;;-0.30;99.90;;;;;;5068869;28;20417;-51
2023/04/04 05:17:01;;;;;;;9.93;4.70;;;-0.30;99.90;;;;;;5068671;28;20024;-53
2023/04/04 05:19:30;;;;;;;12.02;5.22;;;-0.30;99.90;;;;;;5068821;28;20028;-52
2023/04/04 05:21:57;;;;;;;12.73;4.20;;;-0.30;99.90;;;;;;5068979;28;20035;-54
2023/04/04 05:24:44;;;;;;;11.37;4.40;;;-0.20;99.90;;;;;;5068749;28;20021;-53
2023/04/04 05:27:13;;;;;;;14.50;5.13;;;-0.30;99.90;;;;;;5068738;28;20115;-53
2023/04/04 05:29:45;;;;;;;11.50;5.50;;;-0.20;99.90;;;;;;5068641;28;20373;-51
2023/04/04 05:32:11;;;;;;;15.57;5.03;;;-0.20;99.90;;;;;;5068896;28;20032;-50
2023/04/04 05:34:40;;;;;;;11.53;4.67;;;-0.30;99.90;;;;;;5068612;28;20036;-51
2023/04/04 05:37:10;;;;;;;9.30;4.50;;;-0.30;99.90;;;;;;5068556;28;20032;-53
2023/04/04 05:39:38;;;;;;;11.03;4.83;;;-0.30;99.90;;;;;;5068690;28;20036;-51
2023/04/04 05:42:07;;;;;;;14.70;4.83;;;-0.30;99.90;;;;;;5068701;28;20024;-54
2023/04/04 05:44:36;;;;;;;18.23;4.72;;;-0.20;99.90;;;;;;5070068;28;20020;-51
2023/04/04 05:47:04;;;;;;;17.13;5.23;;;-0.20;99.90;;;;;;5068505;28;20028;-48
2023/04/04 05:49:30;;;;;;;12.30;4.73;;;-0.20;99.90;;;;;;5070034;28;20551;-54
2023/04/04 05:51:58;;;;;;;13.53;5.03;;;-0.20;99.90;;;;;;5068726;28;20151;-53
2023/04/04 05:54:25;;;;;;;11.47;5.17;;;-0.10;99.90;;;;;;5068524;28;20036;-54
2023/04/04 05:56:51;;;;;;;11.03;4.60;;;0.00;99.90;;;;;;5068361;28;20024;-51
2023/04/04 05:59:37;;;;;;;14.30;5.03;;;0.10;99.90;;;;;;5068744;28;20431;-54
2023/04/04 06:02:07;;;;;;;12.67;5.33;;;0.20;99.90;;;;;;5068514;28;20029;-53
2023/04/04 06:04:35;;;;;;;14.47;4.90;;;0.20;99.90;;;;;;5068355;28;20052;-54
2023/04/04 06:07:03;;;;;;;13.67;5.13;;;0.30;99.90;;;;;;5069660;28;20032;-54
2023/04/04 06:09:29;;;;;;;21.10;6.37;;;0.40;99.90;;;;;;5068334;28;20562;-53
2023/04/04 06:11:55;;;;;;;11.77;5.17;;;0.40;99.90;;;;;;5068459;28;20052;-52
2023/04/04 06:14:21;;;;;;;12.30;4.97;;;0.50;99.90;;;;;;5068452;28;20037;-53
2023/04/04 06:16:47;;;;;;;14.77;4.97;;;0.50;99.90;;;;;;5068179;28;20028;-50
2023/04/04 06:19:14;;;;;;;10.27;4.97;;;0.70;99.90;;;;;;5068296;28;20024;-53
2023/04/04 06:21:40;;;;;;;13.63;5.13;;;0.90;99.90;;;;;;5068637;28;20516;-54
2023/04/04 06:24:07;;;;;;;13.47;4.70;;;1.30;99.90;;;;;;5069623;28;20032;-49
2023/04/04 06:26:33;;;;;;;13.83;5.60;;;1.80;99.90;;;;;;5073358;28;20029;-53
2023/04/04 06:29:01;;;;;;;14.07;5.13;;;2.20;99.90;;;;;;5071777;28;20115;-49
2023/04/04 06:31:30;;;;;;;12.50;5.00;;;2.40;99.90;;;;;;5071911;28;20025;-52
2023/04/04 06:34:02;;;;;;;14.23;4.53;;;2.30;99.90;;;;;;5071965;28;20028;-51
2023/04/04 06:36:32;;;;;;;15.13;5.30;;;2.60;99.90;;;;;;5071674;28;20207;-53
2023/04/04 06:39:02;;;;;;;12.40;5.53;;;3.20;99.90;;;;;;5071698;28;20040;-52
2023/04/04 06:41:28;;;;;;;12.63;5.33;;;3.80;99.90;;;;;;5071909;28;20052;-53
2023/04/04 06:43:54;;;;;;;14.33;4.60;;;4.00;99.90;;;;;;5071522;28;20063;-55
2023/04/04 06:46:19;;;;;;;12.10;4.90;;;4.30;99.90;;;;;;5072749;28;20039;-52
2023/04/04 06:48:45;;;;;;;13.00;4.67;;;4.50;99.90;;;;;;5072230;28;20098;-51
2023/04/04 06:51:11;;;;;;;12.63;5.43;;;4.60;99.90;;;;;;5072991;28;20028;-54
2023/04/04 06:53:42;;;;;;;11.63;4.93;;;4.70;99.90;;;;;;5071246;28;20036;-54
2023/04/04 06:56:08;;;;;;;14.73;5.67;;;4.70;99.90;;;;;;5071451;28;20032;-53
2023/04/04 06:58:34;;;;;;;13.90;5.33;;;4.70;99.90;;;;;;5072565;28;20024;-55
2023/04/04 07:01:01;;;;;;;12.63;5.87;;;4.80;99.90;;;;;;5071505;28;20037;-52
2023/04/04 07:03:27;;;;;;;14.27;5.10;;;4.90;99.90;;;;;;5071342;28;20028;-54
2023/04/04 07:05:52;;;;;;;14.23;5.80;;;5.10;99.90;;;;;;5072993;28;20054;-52
2023/04/04 07:08:19;;;;;;;13.10;5.07;;;5.30;99.90;;;;;;5072657;28;20119;-53
2023/04/04 07:10:44;;;;;;;13.17;5.23;;;5.50;99.90;;;;;;5096123;22;20079;-47
2023/04/04 07:13:10;;;;;;;11.07;4.43;;;5.80;99.90;;;;;;5092976;28;20060;-48
2023/04/04 07:15:36;;;;;;;12.50;5.93;;;6.10;99.90;;;;;;5092524;28;20035;-47
2023/04/04 07:18:02;;;;;;;17.47;5.60;;;6.40;99.90;;;;;;5092429;28;20081;-49
2023/04/04 07:20:27;;;;;;;13.50;4.23;;;6.40;99.90;;;;;;5092713;28;20039;-49
2023/04/04 07:22:53;;;;;;;17.17;4.80;;;6.80;99.90;;;;;;5092789;28;20043;-53
2023/04/04 07:25:19;;;;;;;11.13;4.43;;;7.10;99.70;;;;;;5092483;28;20035;-47
2023/04/04 07:27:45;;;;;;;13.37;4.27;;;7.60;98.30;;;;;;5092371;28;20057;-50
2023/04/04 07:30:12;;;;;;;13.90;4.00;;;7.50;97.50;;;;;;5092108;28;20032;-50
2023/04/04 07:32:37;;;;;;;10.07;3.50;;;7.50;97.80;;;;;;5092218;28;20032;-48
2023/04/04 07:35:05;;;;;;;11.00;4.20;;;7.50;96.80;;;;;;5091937;28;20040;-47
2023/04/04 07:37:32;;;;;;;10.63;3.40;;;7.20;96.50;;;;;;5092218;28;20082;-49
2023/04/04 07:39:58;;;;;;;13.13;4.30;;;7.40;96.50;;;;;;5092213;28;20024;-49
2023/04/04 07:42:24;;;;;;;12.93;3.83;;;7.50;97.70;;;;;;5092359;28;20028;-46
2023/04/04 07:44:50;;;;;;;9.90;4.30;;;7.50;96.60;;;;;;5092230;28;20722;-49
2023/04/04 07:47:17;;;;;;;12.40;4.00;;;7.60;96.20;;;;;;5091930;28;20038;-48
2023/04/04 07:49:43;;;;;;;8.90;3.60;;;7.70;95.90;;;;;;5092286;28;20387;-47
2023/04/04 07:52:09;;;;;;;9.83;3.43;;;8.00;95.10;;;;;;5091090;28;20024;-47
2023/04/04 07:54:35;;;;;;;6.93;2.47;;;8.90;94.00;;;;;;5092005;28;20051;-48
2023/04/04 07:57:04;;;;;;;8.00;2.70;;;9.70;86.90;;;;;;5092022;28;20370;-49
2023/04/04 07:59:33;;;;;;;8.55;2.17;;;10.20;79.40;;;;;;5091948;28;20477;-47
2023/04/04 08:01:58;;;;;;;6.82;2.30;;;10.50;75.10;;;;;;5092000;28;20024;-47
2023/04/04 08:04:24;;;;;;;5.53;2.43;;;10.40;74.90;;;;;;5091780;28;20503;-47
2023/04/04 08:06:50;;;;;;;5.27;1.90;;;10.30;72.80;;;;;;5091726;28;20035;-47
2023/04/04 08:09:16;;;;;;;7.70;2.63;;;10.00;73.00;;;;;;5091733;28;20039;-48
2023/04/04 08:11:42;;;;;;;8.00;2.80;;;9.70;77.30;;;;;;5091728;28;20064;-52
2023/04/04 08:14:10;;;;;;;5.47;2.20;;;9.60;77.60;;;;;;5091927;28;20103;-48
2023/04/04 08:16:37;;;;;;;3.73;1.70;;;9.40;73.50;;;;;;5091338;28;20036;-47
2023/04/04 08:19:03;;;;;;;5.17;1.60;;;9.20;73.00;;;;;;5091531;28;20027;-48
2023/04/04 08:21:29;;;;;;;4.93;2.00;;;9.20;74.60;;;;;;5091594;28;20389;-47
2023/04/04 08:23:55;;;;;;;5.13;1.80;;;9.10;74.80;;;;;;5091358;28;20090;-46
2023/04/04 08:26:21;;;;;;;4.87;2.03;;;8.30;73.80;;;;;;5089976;28;20043;-48
2023/04/04 08:28:47;;;;;;;4.97;2.33;;;8.00;77.90;;;;;;5091357;28;20035;-46
2023/04/04 08:31:13;;;;;;;6.37;1.90;;;7.80;80.40;;;;;;5091524;28;20081;-48
2023/04/04 08:33:39;;;;;;;7.03;2.17;;;7.60;80.50;;;;;;5091222;28;20055;-51
2023/04/04 08:36:05;;;;;;;5.00;2.30;;;7.50;80.10;;;;;;5091075;28;20081;-51
2023/04/04 08:38:30;;;;;;;7.87;2.40;;;7.50;81.70;;;;;;5090887;28;20032;-48
2023/04/04 08:40:57;;;;;;;6.73;2.50;;;7.80;79.90;;;;;;5091450;28;20384;-49
2023/04/04 08:43:24;;;;;;;7.03;2.53;;;8.00;82.40;;;;;;5090887;28;20170;-50
2023/04/04 08:45:53;;;;;;;6.20;2.20;;;8.10;78.40;;;;;;5091087;28;20055;-51
2023/04/04 08:48:20;;;;;;;6.80;2.43;;;8.10;80.40;;;;;;5090414;28;20039;-50
2023/04/04 08:50:46;;;;;;;5.00;2.13;;;8.40;79.00;;;;;;5091125;28;20050;-52
2023/04/04 08:53:14;;;;;;;8.60;2.40;;;8.60;78.70;;;;;;5090986;28;20035;-50
2023/04/04 08:55:41;;;;;;;6.80;2.03;;;8.50;79.50;;;;;;5090752;28;20086;-50
2023/04/04 08:58:07;;;;;;;6.03;2.03;;;8.50;77.40;;;;;;5090446;28;20036;-48
2023/04/04 09:00:33;;;;;;;6.53;2.23;;;8.50;79.10;;;;;;5090703;28;20030;-49
2023/04/04 09:03:26;;;;;;;5.30;2.00;;;8.40;79.70;;;;;;5090859;28;20031;-52
2023/04/04 09:05:55;;;;;;;7.03;2.30;;;8.40;77.70;;;;;;5088230;28;20418;-48
2023/04/04 09:08:23;;;;;;;9.77;2.67;;;8.30;77.20;;;;;;5090602;28;20046;-48
2023/04/04 09:10:51;;;;;;;6.60;2.10;;;8.30;78.50;;;;;;5090580;28;20446;-48
2023/04/04 09:13:17;;;;;;;5.27;2.17;;;8.30;77.70;;;;;;5090979;28;20102;-48
2023/04/04 09:15:47;;;;;;;6.47;1.77;;;8.00;76.60;;;;;;5090710;28;20411;-48
2023/04/04 09:18:14;;;;;;;6.63;1.77;;;8.00;77.30;;;;;;5090381;28;20036;-50
2023/04/04 09:20:41;;;;;;;5.07;1.90;;;8.00;75.50;;;;;;5090595;28;20482;-46
2023/04/04 09:23:12;;;;;;;5.77;1.90;;;8.10;77.70;;;;;;5090456;28;20087;-47
2023/04/04 09:25:54;;;;;;;7.47;2.70;;;8.10;76.30;;;;;;5090394;28;20024;-50
2023/04/04 09:28:21;;;;;;;7.83;2.40;;;8.10;74.90;;;;;;5090403;28;20052;-48
2023/04/04 09:30:48;;;;;;;4.00;1.80;;;8.20;79.20;;;;;;5090490;28;20074;-49
2023/04/04 09:33:16;;;;;;;4.67;2.10;;;8.20;78.10;;;;;;5090433;28;20411;-50
2023/04/04 09:35:47;;;;;;;7.83;2.80;;;8.30;76.70;;;;;;5090217;28;20127;-48
2023/04/04 09:38:15;;;;;;;6.80;2.10;;;8.30;77.60;;;;;;5090059;28;20548;-49
2023/04/04 09:40:41;;;;;;;6.03;2.30;;;8.90;74.50;;;;;;5090274;28;20060;-47
2023/04/04 09:43:08;;;;;;;6.00;2.13;;;9.20;72.60;;;;;;5090681;28;20450;-47
2023/04/04 09:45:35;;;;;;;5.17;2.03;;;9.40;72.20;;;;;;5090122;28;20068;-49
2023/04/04 09:48:01;;;;;;;5.97;2.23;;;9.40;71.60;;;;;;5090048;28;20093;-46
2023/04/04 09:50:29;;;;;;;4.67;2.20;;;9.30;73.60;;;;;;5090180;28;20028;-48
2023/04/04 09:52:59;;;;;;;8.13;2.60;;;9.20;74.40;;;;;;5089001;28;20448;-48
2023/04/04 09:55:36;;;;;;;5.70;2.20;;;9.40;73.80;;;;;;5089891;28;20098;-49
2023/04/04 09:58:15;;;;;;;7.23;2.33;;;10.10;74.60;;;;;;5089935;28;20032;-51
2023/04/04 10:00:47;;;;;;;6.37;2.27;;;10.40;72.40;;;;;;5093854;28;20036;-50
2023/04/04 10:03:14;;;;;;;6.90;2.20;;;10.40;72.00;;;;;;5093945;28;20054;-48
2023/04/04 10:05:40;;;;;;;6.35;2.15;;;10.60;70.70;;;;;;5093944;28;20043;-48
2023/04/04 10:08:21;;;;;;;5.18;2.20;;;10.80;67.80;;;;;;5093878;28;20028;-48
2023/04/04 10:10:55;;;;;;;4.78;2.50;;;11.50;69.50;;;;;;5093719;28;20400;-48
2023/04/04 10:13:24;;;;;;;4.95;2.38;;;12.00;64.70;;;;;;5093718;28;20081;-47
2023/04/04 10:15:55;;;;;;;7.85;2.10;;;12.30;64.40;;;;;;5094036;28;20122;-49
2023/04/04 10:18:30;;;;;;;7.35;2.33;;;12.40;62.20;;;;;;5093639;28;20054;-53
2023/04/04 10:20:58;;;;;;;6.07;1.90;;;12.20;60.60;;;;;;5093700;28;20024;-52
2023/04/04 10:23:28;;;;;;;7.60;2.13;;;11.80;62.50;;;;;;5109076;28;20431;-51
2023/04/04 10:25:55;;;;;;;4.00;1.75;;;12.30;64.30;;;;;;5093595;28;20035;-49
2023/04/04 10:28:21;;;;;;;4.93;2.03;;;12.00;61.30;;;;;;5093584;28;20028;-47
2023/04/04 10:31:10;;;;;;;6.13;2.05;;;12.10;60.80;;;;;;5093537;28;20032;-47
2023/04/04 10:34:06;;;;;;;5.00;2.00;;;12.30;59.80;;;;;;5093395;28;20024;-46
2023/04/04 10:36:49;;;;;;;5.88;2.03;;;12.50;58.40;;;;;;5093438;28;20032;-49
2023/04/04 10:39:22;;;;;;;6.78;2.20;;;13.20;63.70;;;;;;5091965;28;20040;-49
2023/04/04 10:41:50;;;;;;;5.57;2.38;;;12.90;57.80;;;;;;5093541;28;20028;-48
2023/04/04 10:44:32;;;;;;;4.05;1.85;;;12.70;59.50;;;;;;5093081;28;20036;-47
2023/04/04 10:47:25;;;;;;;5.75;2.00;;;13.00;57.50;;;;;;5093349;28;20032;-50
2023/04/04 10:49:51;;;;;;;4.45;2.17;;;12.90;56.20;;;;;;5093232;28;20032;-51
2023/04/04 10:52:22;;;;;;;8.32;1.90;;;12.90;56.50;;;;;;5093550;28;20032;-49
2023/04/04 10:55:00;;;;;;;4.78;1.98;;;13.60;57.70;;;;;;5092758;28;20059;-47
2023/04/04 10:57:29;;;;;;;5.18;2.10;;;13.90;54.90;;;;;;5093009;28;20480;-48
2023/04/04 11:00:09;;;;;;;6.32;2.75;;;14.10;55.60;;;;;;5092929;28;20077;-51
2023/04/04 11:02:45;;;;;;;4.72;1.90;;;14.00;54.10;;;;;;5093183;28;20389;-51
2023/04/04 11:05:14;;;;;;;4.32;1.85;;;14.10;55.30;;;;;;5092679;28;20020;-50
2023/04/04 11:07:40;;;;;;;4.57;1.90;;;13.70;54.60;;;;;;5092791;28;20388;-49
2023/04/04 11:10:36;;;;;;;4.07;2.00;;;14.30;53.40;;;;;;5092194;28;20032;-52
2023/04/04 11:13:14;;;;;;;4.55;1.92;;;13.80;54.20;;;;;;5080091;28;20082;-51
2023/04/04 11:15:56;;;;;;;3.65;1.90;;;13.40;55.20;;;;;;5092582;28;20043;-48
2023/04/04 11:18:42;;;;;;;3.78;1.95;;;13.90;54.70;;;;;;5092343;28;20128;-53
2023/04/04 11:21:22;;;;;;;5.53;2.10;;;14.70;52.80;;;;;;5092568;28;20050;-51
2023/04/04 11:23:48;;;;;;;4.43;2.00;;;14.00;52.90;;;;;;5092313;28;20407;-51
2023/04/04 11:26:27;;;;;;;5.70;1.92;;;13.50;53.30;;;;;;5092885;28;20054;-51
2023/04/04 11:29:00;;;;;;;3.88;1.65;;;13.70;53.90;;;;;;5092465;28;20102;-48
2023/04/04 11:31:33;;;;;;;7.43;2.17;;;13.50;53.60;;;;;;5092381;28;20431;-50
2023/04/04 11:34:07;;;;;;;4.85;1.75;;;13.50;54.30;;;;;;5092264;28;20039;-47
2023/04/04 11:36:36;;;;;;;6.85;2.20;;;13.60;54.30;;;;;;5092016;28;20036;-52
2023/04/04 11:39:21;;;;;;;4.82;1.90;;;13.30;54.20;;;;;;5092354;28;20028;-49
2023/04/04 11:41:51;;;;;;;4.00;2.10;;;13.30;56.60;;;;;;5092278;28;20024;-52
2023/04/04 11:44:17;;;;;;;6.53;1.95;;;13.50;56.30;;;;;;5092149;28;20028;-47
2023/04/04 11:46:45;;;;;;;5.60;1.85;;;13.10;54.40;;;;;;5092041;28;20040;-48
2023/04/04 11:49:11;;;;;;;4.68;2.05;;;13.40;56.40;;;;;;5092120;28;20032;-49
2023/04/04 11:51:40;;;;;;;5.93;1.83;;;13.20;55.10;;;;;;5092164;28;20488;-48
2023/04/04 11:54:16;;;;;;;4.53;1.90;;;13.10;52.70;;;;;;5091903;28;20055;-49
2023/04/04 11:56:45;;;;;;;6.75;2.10;;;13.90;54.20;;;;;;5091943;28;20198;-50
2023/04/04 11:59:11;;;;;;;5.57;2.20;;;13.60;52.60;;;;;;5091789;28;20028;-52
2023/04/04 12:01:39;;;;;;;10.15;2.33;;;13.50;54.30;;;;;;5091941;28;20024;-48
2023/04/04 12:04:05;;;;;;;5.75;1.95;;;13.20;55.10;;;;;;5091623;28;20488;-49
2023/04/04 12:06:40;;;;;;;6.40;2.03;;;13.10;53.40;;;;;;5091662;28;20035;-51
2023/04/04 12:09:05;;;;;;;5.00;1.92;;;12.60;53.90;;;;;;5091657;28;20028;-51
2023/04/04 12:11:36;;;;;;;7.68;2.15;;;12.60;54.60;;;;;;5091617;28;20039;-49
2023/04/04 12:14:01;;;;;;;4.68;2.03;;;12.50;54.60;;;;;;5091442;28;20097;-51
2023/04/04 12:16:27;;;;;;;5.10;2.05;;;12.50;53.10;;;;;;5091651;28;20036;-51
2023/04/04 12:18:55;;;;;;;4.00;1.92;;;12.30;53.10;;;;;;5091649;28;20082;-48
2023/04/04 12:21:20;;;;;;;6.03;1.95;;;12.10;54.80;;;;;;5090822;28;20086;-51
2023/04/04 12:23:49;;;;;;;7.50;1.80;;;11.80;53.40;;;;;;5091710;28;20028;-53
2023/04/04 12:26:17;;;;;;;7.18;2.28;;;11.50;54.50;;;;;;5091359;28;20397;-51
2023/04/04 12:28:44;;;;;;;10.33;2.33;;;12.00;57.40;;;;;;5091187;28;20028;-48
2023/04/04 12:31:12;;;;;;;5.53;2.20;;;12.00;54.20;;;;;;5091365;28;20020;-49
2023/04/04 12:33:40;;;;;;;5.13;2.10;;;12.20;54.10;;;;;;5091159;28;20066;-50
2023/04/04 12:36:06;;;;;;;6.23;2.23;;;12.30;56.20;;;;;;5091141;28;20484;-47
2023/04/04 12:38:33;;;;;;;6.33;2.57;;;12.30;54.60;;;;;;5090880;28;20126;-48
2023/04/04 12:40:59;;;;;;;7.00;2.43;;;12.50;58.50;;;;;;5090965;28;20024;-48
2023/04/04 12:43:28;;;;;;;7.87;2.20;;;12.50;57.10;;;;;;5090877;28;20530;-47
2023/04/04 12:45:56;;;;;;;;;;;12.30;54.40;;;;;;5091852;28;20028;-48
2023/04/04 12:48:27;;;;;;;5.37;2.30;;;12.20;55.10;;;;;;5090775;28;19909;-48
2023/04/04 12:50:57;;;;;;;6.40;2.30;;;12.40;55.60;;;;;;5090907;28;20101;-47
2023/04/04 12:53:26;;;;;;;5.97;2.70;;;12.20;56.70;;;;;;5090854;28;20249;-48
2023/04/04 12:55:53;;;;;;;6.00;2.08;;;11.90;56.70;;;;;;5091019;28;20469;-49
2023/04/04 12:58:21;;;;;;;6.33;2.30;;;11.90;55.50;;;;;;5090771;28;20070;-48